Time;durP1;ratioP1;P1;durP2;ratioP2;P2;SDS_P1;SDS_P2;PMS_P1;PMS_P2;Temp;Humidity;BMP_temperature;BMP_pressure;BME280_temperature;BME280_humidity;BME280_pressure;Samples;Min_cycle;Max_cycle;Signal;HPM_P1;HPM_P2
2023/11/15 00:00:18;;;;;;;1.85;1.30;;;13.50;78.50;;;;;;4904426;29;20051;-78
2023/11/15 00:02:44;;;;;;;2.03;1.40;;;13.50;78.50;;;;;;4901224;29;20043;-78
2023/11/15 00:05:10;;;;;;;2.42;1.60;;;13.50;78.50;;;;;;4900591;29;20138;-79
2023/11/15 00:07:35;;;;;;;2.53;1.30;;;13.50;78.50;;;;;;4901325;29;20110;-79
2023/11/15 00:10:03;;;;;;;3.08;1.45;;;13.50;78.50;;;;;;4901233;29;20044;-78
2023/11/15 00:12:31;;;;;;;2.45;1.50;;;13.50;78.60;;;;;;4916639;29;20163;-78
2023/11/15 00:14:57;;;;;;;1.75;1.30;;;13.50;78.60;;;;;;4916875;29;20482;-78
2023/11/15 00:17:23;;;;;;;1.70;1.25;;;13.50;78.60;;;;;;4917662;29;20092;-78
2023/11/15 00:19:49;;;;;;;3.72;1.60;;;13.50;78.60;;;;;;4916641;29;20164;-78
2023/11/15 00:22:15;;;;;;;3.05;1.42;;;13.50;78.60;;;;;;4916267;29;20032;-79
2023/11/15 00:24:42;;;;;;;3.78;1.50;;;13.50;78.60;;;;;;4869974;29;20051;-78
2023/11/15 00:27:08;;;;;;;2.05;1.67;;;13.50;78.70;;;;;;4917243;29;20028;-78
2023/11/15 00:29:34;;;;;;;2.40;1.48;;;13.40;78.60;;;;;;4901455;29;20475;-79
2023/11/15 00:32:00;;;;;;;1.90;1.42;;;13.50;78.60;;;;;;4900579;29;20020;-78
2023/11/15 00:34:26;;;;;;;2.03;1.42;;;13.50;78.70;;;;;;4900618;29;20036;-79
2023/11/15 00:36:53;;;;;;;1.33;1.23;;;13.50;78.70;;;;;;4916240;29;20392;-78
2023/11/15 00:39:19;;;;;;;1.40;1.30;;;13.40;78.60;;;;;;4885416;29;20032;-78
2023/11/15 00:41:45;;;;;;;2.10;1.40;;;13.50;78.70;;;;;;4900877;29;20036;-78
2023/11/15 00:44:11;;;;;;;2.40;1.45;;;13.40;78.70;;;;;;4916202;29;20043;-78
2023/11/15 00:46:37;;;;;;;1.85;1.20;;;13.40;78.60;;;;;;4900576;29;20036;-79
2023/11/15 00:49:03;;;;;;;1.90;1.30;;;13.40;78.60;;;;;;4901076;29;20438;-79
2023/11/15 00:51:29;;;;;;;1.63;1.30;;;13.40;78.60;;;;;;4915971;29;20127;-78
2023/11/15 00:53:55;;;;;;;2.03;1.30;;;13.40;78.70;;;;;;4916024;29;20633;-80
2023/11/15 00:56:21;;;;;;;2.03;1.40;;;13.40;78.70;;;;;;4901091;29;20045;-79
2023/11/15 00:58:47;;;;;;;2.10;1.33;;;13.40;78.70;;;;;;4900568;29;20413;-79
2023/11/15 01:01:13;;;;;;;2.22;1.48;;;13.40;78.70;;;;;;4900305;29;20422;-78
2023/11/15 01:03:45;;;;;;;2.03;1.40;;;13.40;78.70;;;;;;4869526;29;20059;-78
2023/11/15 01:06:11;;;;;;;2.13;1.42;;;13.40;78.70;;;;;;4916011;29;20051;-78
2023/11/15 01:08:37;;;;;;;1.48;1.30;;;13.40;78.70;;;;;;4900376;29;20024;-78
2023/11/15 01:11:06;;;;;;;3.25;1.40;;;13.40;78.70;;;;;;4884709;29;20032;-79
2023/11/15 01:13:32;;;;;;;3.47;1.50;;;13.40;78.70;;;;;;4915701;29;20058;-78
2023/11/15 01:15:59;;;;;;;2.45;1.30;;;13.40;78.70;;;;;;4915601;29;20096;-79
2023/11/15 01:18:24;;;;;;;3.53;1.58;;;13.40;78.80;;;;;;4900331;29;20037;-79
2023/11/15 01:20:52;;;;;;;3.45;1.65;;;13.40;78.80;;;;;;4884916;29;20040;-79
2023/11/15 01:23:18;;;;;;;3.63;1.90;;;13.40;78.80;;;;;;4917453;29;20117;-78
2023/11/15 01:25:44;;;;;;;2.03;1.25;;;13.40;78.80;;;;;;4900351;29;20036;-79
2023/11/15 01:28:10;;;;;;;1.83;1.30;;;13.40;78.80;;;;;;4915704;29;20044;-78
2023/11/15 01:30:35;;;;;;;2.85;1.60;;;13.40;78.80;;;;;;4900123;29;20087;-79
2023/11/15 01:33:01;;;;;;;2.72;1.50;;;13.40;78.80;;;;;;4900003;29;20039;-79
2023/11/15 01:35:28;;;;;;;2.05;1.50;;;13.40;78.80;;;;;;4899980;29;20128;-78
2023/11/15 01:37:54;;;;;;;1.52;1.30;;;13.40;78.80;;;;;;4884830;29;20060;-78
2023/11/15 01:40:20;;;;;;;2.60;1.48;;;13.40;78.80;;;;;;4915905;29;20088;-79
2023/11/15 01:42:47;;;;;;;2.28;1.48;;;13.40;78.80;;;;;;4931717;29;20512;-79
2023/11/15 01:45:13;;;;;;;2.42;1.40;;;13.40;78.90;;;;;;4916890;29;20032;-78
2023/11/15 01:47:40;;;;;;;2.08;1.35;;;13.40;78.80;;;;;;4900094;29;20068;-79
2023/11/15 01:50:10;;;;;;;2.03;1.30;;;13.40;78.80;;;;;;4915633;29;20389;-78
2023/11/15 01:52:46;;;;;;;1.50;1.30;;;13.40;78.90;;;;;;4931788;29;20433;-78
2023/11/15 01:55:14;;;;;;;3.00;1.70;;;13.40;78.90;;;;;;4915581;29;20122;-79
2023/11/15 01:57:40;;;;;;;2.45;1.20;;;13.40;78.80;;;;;;4900149;29;20520;-78
2023/11/15 02:00:11;;;;;;;1.88;1.30;;;13.40;78.80;;;;;;4915231;29;20072;-79
2023/11/15 02:02:41;;;;;;;2.80;1.50;;;13.40;78.80;;;;;;4900481;29;20028;-78
2023/11/15 02:05:09;;;;;;;1.50;1.20;;;13.40;78.80;;;;;;4887470;29;20048;-79
2023/11/15 02:07:41;;;;;;;1.50;1.13;;;13.40;78.80;;;;;;4919402;29;20054;-78
2023/11/15 02:10:09;;;;;;;2.25;1.33;;;13.40;78.80;;;;;;4918856;29;20040;-78
2023/11/15 02:12:35;;;;;;;2.47;1.20;;;13.40;78.80;;;;;;4918810;29;20055;-78
2023/11/15 02:15:00;;;;;;;2.05;1.30;;;13.40;78.80;;;;;;4903156;29;20032;-79
2023/11/15 02:17:27;;;;;;;1.45;1.33;;;13.40;78.80;;;;;;4918823;29;20485;-78
2023/11/15 02:19:52;;;;;;;1.48;1.00;;;13.40;78.90;;;;;;4919971;29;20393;-78
2023/11/15 02:22:18;;;;;;;1.75;1.20;;;13.30;78.80;;;;;;4919393;29;20068;-78
2023/11/15 02:24:45;;;;;;;1.42;1.15;;;13.30;78.80;;;;;;4918556;29;20491;-78
2023/11/15 02:27:13;;;;;;;1.60;1.05;;;13.30;78.90;;;;;;4918535;29;20040;-78
2023/11/15 02:29:39;;;;;;;1.17;0.98;;;13.30;78.90;;;;;;4887976;29;20476;-78
2023/11/15 02:32:06;;;;;;;1.48;1.15;;;13.30;78.80;;;;;;4887143;29;20036;-78
2023/11/15 02:34:32;;;;;;;1.67;1.23;;;13.30;78.90;;;;;;4918432;29;20028;-78
2023/11/15 02:36:58;;;;;;;1.45;1.08;;;13.30;78.90;;;;;;4918570;29;20037;-78
2023/11/15 02:39:24;;;;;;;2.28;1.20;;;13.30;78.90;;;;;;4918525;29;20032;-78
2023/11/15 02:41:50;;;;;;;1.20;1.10;;;13.30;78.90;;;;;;4918127;29;20445;-78
2023/11/15 02:44:16;;;;;;;1.27;1.10;;;13.30;78.80;;;;;;4917984;29;20055;-78
2023/11/15 02:46:41;;;;;;;1.67;1.30;;;13.30;78.90;;;;;;4887016;29;20392;-78
2023/11/15 02:49:07;;;;;;;1.00;1.00;;;13.30;78.80;;;;;;4918182;29;20040;-78
2023/11/15 02:51:33;;;;;;;1.40;1.08;;;13.30;78.90;;;;;;4919031;29;20408;-78
2023/11/15 02:53:59;;;;;;;1.88;1.15;;;13.30;78.80;;;;;;4902312;29;20091;-79
2023/11/15 02:56:24;;;;;;;1.20;1.10;;;13.30;78.90;;;;;;4886734;29;20119;-78
2023/11/15 02:58:52;;;;;;;0.88;0.88;;;13.30;78.90;;;;;;4918019;29;20048;-78
2023/11/15 03:01:17;;;;;;;1.70;1.13;;;13.30;78.90;;;;;;4917776;29;20067;-78
2023/11/15 03:03:43;;;;;;;1.33;1.17;;;13.30;79.00;;;;;;4918632;29;20040;-78
2023/11/15 03:06:09;;;;;;;1.40;1.20;;;13.30;78.90;;;;;;4886611;29;20058;-78
2023/11/15 03:08:36;;;;;;;0.90;0.90;;;13.30;78.90;;;;;;4917820;29;20438;-78
2023/11/15 03:11:02;;;;;;;1.17;1.08;;;13.30;78.90;;;;;;4918712;29;20385;-79
2023/11/15 03:13:28;;;;;;;1.23;1.10;;;13.30;78.90;;;;;;4902187;29;20039;-78
2023/11/15 03:15:55;;;;;;;1.33;1.23;;;13.20;78.90;;;;;;4919386;29;20036;-78
2023/11/15 03:18:21;;;;;;;3.00;1.00;;;13.30;79.00;;;;;;4902013;29;20397;-78
2023/11/15 03:20:48;;;;;;;1.67;1.10;;;13.20;78.90;;;;;;4918603;29;20477;-78
2023/11/15 03:23:14;;;;;;;2.15;1.15;;;13.20;78.90;;;;;;4886272;29;20055;-78
2023/11/15 03:25:40;;;;;;;1.48;1.10;;;13.30;79.60;;;;;;4886292;29;20488;-78
2023/11/15 03:28:06;;;;;;;1.45;1.05;;;13.20;78.90;;;;;;4918707;29;20047;-79
2023/11/15 03:30:32;;;;;;;1.20;1.10;;;13.20;79.00;;;;;;4901732;29;20040;-78
2023/11/15 03:32:57;;;;;;;1.17;1.08;;;13.20;79.00;;;;;;4870667;29;20034;-78
2023/11/15 03:35:23;;;;;;;2.53;1.10;;;13.20;79.00;;;;;;4886113;29;20032;-78
2023/11/15 03:37:50;;;;;;;1.27;1.17;;;13.20;79.00;;;;;;4917609;29;20029;-78
2023/11/15 03:40:19;;;;;;;1.70;1.15;;;13.20;79.00;;;;;;4917299;29;20544;-78
2023/11/15 03:42:46;;;;;;;1.40;1.20;;;13.20;79.00;;;;;;4902727;29;20040;-78
2023/11/15 03:45:13;;;;;;;1.20;1.10;;;13.20;79.00;;;;;;4901606;29;20044;-78
2023/11/15 03:47:39;;;;;;;1.90;1.30;;;13.20;79.00;;;;;;4917271;29;20038;-78
2023/11/15 03:50:05;;;;;;;1.80;1.38;;;13.20;79.00;;;;;;4885892;29;20043;-78
2023/11/15 03:52:32;;;;;;;2.33;1.30;;;13.20;79.00;;;;;;4916916;29;20020;-78
2023/11/15 03:54:58;;;;;;;2.38;1.33;;;13.20;79.00;;;;;;4916984;29;20074;-79
2023/11/15 03:57:24;;;;;;;1.85;1.33;;;13.20;79.00;;;;;;4885756;29;20064;-77
2023/11/15 03:59:53;;;;;;;1.60;1.20;;;13.20;79.00;;;;;;4901508;29;20152;-78
2023/11/15 04:02:18;;;;;;;2.95;1.42;;;13.20;79.00;;;;;;4918085;29;20032;-78
2023/11/15 04:04:44;;;;;;;1.38;1.27;;;13.20;79.00;;;;;;4916622;29;20063;-78
2023/11/15 04:07:10;;;;;;;2.35;1.30;;;13.20;79.00;;;;;;4901723;29;20481;-79
2023/11/15 04:09:36;;;;;;;1.80;1.10;;;13.20;79.00;;;;;;4885826;29;20039;-78
2023/11/15 04:12:02;;;;;;;2.58;1.40;;;13.20;79.00;;;;;;4901257;29;20039;-78
2023/11/15 04:14:28;;;;;;;1.65;1.10;;;13.30;79.10;;;;;;4885423;29;20468;-78
2023/11/15 04:16:54;;;;;;;2.20;1.25;;;13.20;79.00;;;;;;4916702;29;20489;-78
2023/11/15 04:19:21;;;;;;;2.45;1.20;;;13.20;79.00;;;;;;4900840;29;20036;-78
2023/11/15 04:21:50;;;;;;;1.95;1.42;;;13.20;79.00;;;;;;4917485;29;20469;-78
2023/11/15 04:24:20;;;;;;;1.85;1.20;;;13.20;79.00;;;;;;4916593;29;20075;-78
2023/11/15 04:26:46;;;;;;;2.67;1.30;;;13.20;79.10;;;;;;4916399;29;20043;-78
2023/11/15 04:29:12;;;;;;;1.95;1.20;;;13.20;79.00;;;;;;4900580;29;20054;-78
2023/11/15 04:31:38;;;;;;;2.05;1.35;;;13.20;79.10;;;;;;4916824;29;20040;-78
2023/11/15 04:34:05;;;;;;;1.77;1.25;;;13.20;79.10;;;;;;4916698;29;20044;-78
2023/11/15 04:36:35;;;;;;;2.28;1.20;;;13.20;79.10;;;;;;4900504;29;20090;-78
2023/11/15 04:39:07;;;;;;;2.17;1.20;;;13.20;79.10;;;;;;4916261;29;20091;-78
2023/11/15 04:41:34;;;;;;;2.60;1.40;;;13.20;79.10;;;;;;4916205;29;20534;-78
2023/11/15 04:44:00;;;;;;;1.83;1.20;;;13.20;79.00;;;;;;4916552;29;20036;-78
2023/11/15 04:46:26;;;;;;;1.25;1.15;;;13.20;79.10;;;;;;4900448;29;20457;-78
2023/11/15 04:48:51;;;;;;;1.90;1.15;;;13.20;79.10;;;;;;4900837;29;20033;-78
2023/11/15 04:51:17;;;;;;;2.20;1.10;;;13.20;79.10;;;;;;4900156;29;20471;-78
2023/11/15 04:53:43;;;;;;;3.20;1.40;;;13.20;79.00;;;;;;4916115;29;20092;-78
2023/11/15 04:56:09;;;;;;;2.22;1.20;;;13.20;79.00;;;;;;4901195;29;20131;-78
2023/11/15 04:58:35;;;;;;;3.10;1.58;;;13.20;79.00;;;;;;4917110;29;20371;-79
2023/11/15 05:01:00;;;;;;;2.13;1.27;;;13.20;79.00;;;;;;4900211;29;20033;-78
2023/11/15 05:03:26;;;;;;;1.40;1.30;;;13.20;79.00;;;;;;4885603;29;20044;-78
2023/11/15 05:05:52;;;;;;;1.55;0.95;;;13.20;79.00;;;;;;4915881;29;20052;-78
2023/11/15 05:08:18;;;;;;;2.20;1.30;;;13.20;79.00;;;;;;4884719;29;20075;-78
2023/11/15 05:10:44;;;;;;;2.03;1.38;;;13.20;79.00;;;;;;4916955;29;20040;-79
2023/11/15 05:13:09;;;;;;;2.03;1.25;;;13.20;79.00;;;;;;4915829;29;20032;-78
2023/11/15 05:15:35;;;;;;;2.60;1.67;;;13.20;79.10;;;;;;4884584;29;20067;-78
2023/11/15 05:18:01;;;;;;;1.30;1.20;;;13.20;79.00;;;;;;4917676;29;20069;-78
2023/11/15 05:20:27;;;;;;;3.22;1.60;;;13.20;79.00;;;;;;4917122;29;20381;-78
2023/11/15 05:22:54;;;;;;;2.22;1.20;;;13.20;79.00;;;;;;4900102;29;20397;-78
2023/11/15 05:25:21;;;;;;;1.83;1.33;;;13.20;79.00;;;;;;4915958;29;20128;-78
2023/11/15 05:27:47;;;;;;;2.03;1.23;;;13.20;79.00;;;;;;4916786;29;20046;-78
2023/11/15 05:30:15;;;;;;;1.45;1.30;;;13.30;79.10;;;;;;4916099;29;20059;-78
2023/11/15 05:32:42;;;;;;;2.13;1.23;;;13.20;79.00;;;;;;4884527;29;20084;-78
2023/11/15 05:35:10;;;;;;;2.70;1.40;;;13.20;79.00;;;;;;4899928;29;20040;-78
2023/11/15 05:37:37;;;;;;;2.35;1.40;;;13.20;79.00;;;;;;4900176;29;20044;-78
2023/11/15 05:40:03;;;;;;;1.23;1.00;;;13.20;79.10;;;;;;4888796;29;20537;-78
2023/11/15 05:42:29;;;;;;;3.70;1.40;;;13.20;79.10;;;;;;4903593;29;20032;-78
2023/11/15 05:44:55;;;;;;;2.65;1.60;;;13.20;79.10;;;;;;4919389;29;20492;-79
2023/11/15 05:47:20;;;;;;;3.15;1.23;;;13.20;79.10;;;;;;4918988;29;20055;-77
2023/11/15 05:49:46;;;;;;;2.00;1.17;;;13.20;79.10;;;;;;4903374;29;20495;-77
2023/11/15 05:52:14;;;;;;;2.25;1.15;;;13.20;79.10;;;;;;4903287;29;20087;-78
2023/11/15 05:54:40;;;;;;;1.55;1.35;;;13.20;79.10;;;;;;4918992;29;20047;-77
2023/11/15 05:57:06;;;;;;;2.13;1.30;;;13.20;79.00;;;;;;4903370;29;20040;-77
2023/11/15 05:59:31;;;;;;;2.55;1.30;;;13.20;79.00;;;;;;4918765;29;20036;-77
2023/11/15 06:01:57;;;;;;;2.47;1.40;;;13.20;79.00;;;;;;4918847;29;20131;-77
2023/11/15 06:04:23;;;;;;;1.92;1.13;;;13.20;79.00;;;;;;4921392;29;20040;-77
2023/11/15 06:06:48;;;;;;;3.17;1.20;;;13.20;79.00;;;;;;4939473;29;20063;-77
2023/11/15 06:09:17;;;;;;;1.40;1.08;;;13.20;79.00;;;;;;4921839;29;20055;-77
2023/11/15 06:11:43;;;;;;;2.20;1.40;;;13.20;79.00;;;;;;4922237;29;20102;-77
2023/11/15 06:14:14;;;;;;;2.45;1.40;;;13.20;79.00;;;;;;4905852;29;20067;-78
2023/11/15 06:16:40;;;;;;;2.17;1.33;;;13.20;79.10;;;;;;4938816;29;20027;-77
2023/11/15 06:19:08;;;;;;;3.17;1.77;;;13.20;79.30;;;;;;4905745;29;20071;-78
2023/11/15 06:21:42;;;;;;;3.72;1.42;;;13.20;79.00;;;;;;4906550;29;20051;-79
2023/11/15 06:24:08;;;;;;;1.50;1.15;;;13.30;79.10;;;;;;4921685;29;20091;-78
2023/11/15 06:26:38;;;;;;;4.93;1.55;;;13.30;79.10;;;;;;4938499;29;20044;-79
2023/11/15 06:29:05;;;;;;;1.63;1.13;;;13.30;79.10;;;;;;4921753;29;20028;-78
2023/11/15 06:31:32;;;;;;;2.85;1.30;;;13.20;79.00;;;;;;4921975;29;20035;-79
2023/11/15 06:33:58;;;;;;;3.05;1.50;;;13.20;79.00;;;;;;4921603;29;20027;-79
2023/11/15 06:36:24;;;;;;;2.20;1.33;;;13.30;79.10;;;;;;4938551;29;20035;-79
2023/11/15 06:38:50;;;;;;;3.20;1.40;;;13.30;79.10;;;;;;4891113;29;20090;-80
2023/11/15 06:41:15;;;;;;;2.85;1.20;;;13.30;79.10;;;;;;4890169;29;20492;-79
2023/11/15 06:43:41;;;;;;;1.65;1.20;;;13.30;79.10;;;;;;4938608;29;20032;-78
2023/11/15 06:46:08;;;;;;;2.63;1.30;;;13.30;79.10;;;;;;4921309;29;20537;-79
2023/11/15 06:48:33;;;;;;;1.90;1.33;;;13.30;79.10;;;;;;4921550;29;20114;-79
2023/11/15 06:50:59;;;;;;;2.20;1.30;;;13.20;79.00;;;;;;4905338;29;20122;-78
2023/11/15 06:53:25;;;;;;;3.58;1.30;;;13.30;79.10;;;;;;4905853;29;20067;-78
2023/11/15 06:55:52;;;;;;;2.80;1.65;;;13.30;79.20;;;;;;4921209;29;20506;-78
2023/11/15 06:58:19;;;;;;;3.25;1.40;;;13.30;79.20;;;;;;4890213;29;20123;-78
2023/11/15 07:00:45;;;;;;;2.20;1.45;;;13.20;79.10;;;;;;4905613;29;20118;-76
2023/11/15 07:03:14;;;;;;;1.58;1.20;;;13.30;79.20;;;;;;4905597;29;20130;-76
2023/11/15 07:05:48;;;;;;;3.08;1.48;;;13.30;79.20;;;;;;4905206;29;20087;-76
2023/11/15 07:08:16;;;;;;;1.63;1.13;;;13.20;79.10;;;;;;4906076;29;20036;-77
2023/11/15 07:10:42;;;;;;;2.00;1.38;;;13.20;79.10;;;;;;4921383;29;20027;-77
2023/11/15 07:13:08;;;;;;;2.67;1.40;;;13.20;79.10;;;;;;4890130;29;20443;-76
2023/11/15 07:15:35;;;;;;;2.00;1.23;;;13.30;79.20;;;;;;4905212;29;20485;-77
2023/11/15 07:18:02;;;;;;;2.33;1.20;;;13.30;79.10;;;;;;4905215;29;20384;-76
2023/11/15 07:20:28;;;;;;;4.13;1.65;;;13.30;79.10;;;;;;4920908;29;20032;-77
2023/11/15 07:22:54;;;;;;;2.60;1.67;;;13.30;79.20;;;;;;4920860;29;20460;-77
2023/11/15 07:25:20;;;;;;;1.55;1.15;;;13.30;79.10;;;;;;4920962;29;20048;-80
2023/11/15 07:27:46;;;;;;;3.33;1.73;;;13.30;79.10;;;;;;4905414;29;20047;-76
2023/11/15 07:30:13;;;;;;;2.15;1.40;;;13.20;79.00;;;;;;4920684;29;20051;-76
2023/11/15 07:32:40;;;;;;;2.17;1.40;;;13.30;79.80;;;;;;4920502;29;20038;-77
2023/11/15 07:35:08;;;;;;;2.85;1.45;;;13.30;79.10;;;;;;4937897;29;20043;-77
2023/11/15 07:37:34;;;;;;;4.00;1.80;;;13.30;79.10;;;;;;4920923;29;20500;-78
2023/11/15 07:40:00;;;;;;;1.90;1.35;;;13.30;79.10;;;;;;4904799;29;20036;-77
2023/11/15 07:42:26;;;;;;;3.00;1.77;;;13.30;79.10;;;;;;4920776;29;20066;-78
2023/11/15 07:44:52;;;;;;;2.35;1.40;;;13.30;79.10;;;;;;4904596;29;20374;-77
2023/11/15 07:47:18;;;;;;;2.10;1.40;;;13.30;79.10;;;;;;4889048;29;20035;-77
2023/11/15 07:49:44;;;;;;;1.38;1.20;;;13.30;79.10;;;;;;4921240;29;20042;-76
2023/11/15 07:52:11;;;;;;;1.33;1.17;;;13.30;79.10;;;;;;4904476;29;20036;-82
2023/11/15 07:54:38;;;;;;;2.75;1.60;;;13.30;79.20;;;;;;4920586;29;20059;-78
2023/11/15 07:57:06;;;;;;;2.17;1.40;;;13.30;79.20;;;;;;4889164;29;20036;-78
2023/11/15 07:59:32;;;;;;;4.25;1.48;;;13.30;79.20;;;;;;4904821;29;20096;-77
2023/11/15 08:01:58;;;;;;;2.78;1.50;;;13.30;79.20;;;;;;4903901;29;20426;-78
2023/11/15 08:04:26;;;;;;;1.83;1.35;;;13.30;79.10;;;;;;4888693;29;20039;-78
2023/11/15 08:06:52;;;;;;;2.40;1.30;;;13.30;79.10;;;;;;4920375;29;20051;-78
2023/11/15 08:09:24;;;;;;;3.05;1.70;;;13.30;79.10;;;;;;4919820;29;20046;-76
2023/11/15 08:11:53;;;;;;;2.15;1.33;;;13.30;79.10;;;;;;4889009;29;20122;-77
2023/11/15 08:14:21;;;;;;;2.95;1.45;;;13.30;79.10;;;;;;4904361;29;20092;-79
2023/11/15 08:16:47;;;;;;;3.67;1.50;;;13.30;79.10;;;;;;4903939;29;20036;-77
2023/11/15 08:19:13;;;;;;;2.42;1.40;;;13.30;79.10;;;;;;4920143;29;20401;-77
2023/11/15 08:21:39;;;;;;;3.83;1.52;;;13.30;79.10;;;;;;4903813;29;20043;-76
2023/11/15 08:24:06;;;;;;;1.67;1.30;;;13.30;79.10;;;;;;4919575;29;20082;-77
2023/11/15 08:26:33;;;;;;;3.08;1.40;;;13.30;79.10;;;;;;4903798;29;20043;-77
2023/11/15 08:28:59;;;;;;;2.95;1.55;;;13.30;79.10;;;;;;4888761;29;20039;-77
2023/11/15 08:31:26;;;;;;;2.42;1.30;;;13.30;79.10;;;;;;4904482;29;20468;-77
2023/11/15 08:33:53;;;;;;;3.55;1.70;;;13.30;79.10;;;;;;4903613;29;20130;-77
2023/11/15 08:36:19;;;;;;;1.95;1.45;;;13.30;79.10;;;;;;4903778;29;20042;-77
2023/11/15 08:38:44;;;;;;;3.05;1.50;;;13.30;79.20;;;;;;4919923;29;20126;-77
2023/11/15 08:41:15;;;;;;;2.33;1.67;;;13.30;79.10;;;;;;4919626;29;20115;-77
2023/11/15 08:43:40;;;;;;;3.17;1.52;;;13.30;79.20;;;;;;4919677;29;20035;-77
2023/11/15 08:46:06;;;;;;;4.15;1.60;;;13.30;79.20;;;;;;4903651;29;20058;-77
2023/11/15 08:48:34;;;;;;;2.72;1.42;;;13.40;79.20;;;;;;4903543;29;20063;-77
2023/11/15 08:51:02;;;;;;;2.30;1.63;;;13.40;79.20;;;;;;4903569;29;20023;-77
2023/11/15 08:53:28;;;;;;;2.60;1.60;;;13.40;79.20;;;;;;4919449;29;20027;-77
2023/11/15 08:55:55;;;;;;;2.70;1.52;;;13.40;79.20;;;;;;4919353;29;20512;-77
2023/11/15 08:58:27;;;;;;;3.88;1.55;;;13.40;79.20;;;;;;4919200;29;20028;-77
2023/11/15 09:00:55;;;;;;;2.63;1.48;;;13.40;79.20;;;;;;4919103;29;20393;-77
2023/11/15 09:03:20;;;;;;;3.13;1.60;;;13.40;79.10;;;;;;4918964;29;20038;-76
2023/11/15 09:05:47;;;;;;;2.55;1.83;;;13.40;79.10;;;;;;4915806;29;20052;-77
2023/11/15 09:08:13;;;;;;;3.35;1.80;;;13.40;79.10;;;;;;4900438;29;20043;-77
2023/11/15 09:10:39;;;;;;;1.77;1.25;;;13.40;79.10;;;;;;4901124;29;20103;-77
2023/11/15 09:13:08;;;;;;;2.60;1.40;;;13.40;79.10;;;;;;4902875;29;20033;-77
2023/11/15 09:15:40;;;;;;;1.90;1.33;;;13.40;79.20;;;;;;4921473;29;20048;-77
2023/11/15 09:18:06;;;;;;;3.30;1.45;;;13.50;79.20;;;;;;4904301;29;20028;-77
2023/11/15 09:20:34;;;;;;;1.83;1.35;;;13.50;79.20;;;;;;4919858;29;20043;-76
2023/11/15 09:23:00;;;;;;;3.60;1.58;;;13.50;79.20;;;;;;4919743;29;20502;-76
2023/11/15 09:25:30;;;;;;;2.60;1.42;;;13.50;79.20;;;;;;4919946;29;20072;-76
2023/11/15 09:27:59;;;;;;;2.75;1.35;;;13.50;79.20;;;;;;4889167;29;20401;-76
2023/11/15 09:30:25;;;;;;;2.85;1.33;;;13.50;79.20;;;;;;4920693;29;20032;-76
2023/11/15 09:32:51;;;;;;;2.40;1.42;;;13.50;79.80;;;;;;4920831;29;20028;-77
2023/11/15 09:35:17;;;;;;;2.03;1.40;;;13.50;79.10;;;;;;4919737;29;20040;-76
2023/11/15 09:37:44;;;;;;;2.67;1.38;;;13.50;79.80;;;;;;4920516;29;20028;-77
2023/11/15 09:40:13;;;;;;;3.33;1.48;;;13.50;79.10;;;;;;4920485;29;20036;-77
2023/11/15 09:42:47;;;;;;;2.10;1.35;;;13.50;79.10;;;;;;4904543;29;20416;-77
2023/11/15 09:45:17;;;;;;;4.18;1.52;;;13.60;79.20;;;;;;4904044;29;20044;-77
2023/11/15 09:48:04;;;;;;;2.60;1.45;;;13.50;79.10;;;;;;4919348;29;20036;-77
2023/11/15 09:50:33;;;;;;;2.95;1.40;;;13.60;79.20;;;;;;4920274;29;20028;-76
2023/11/15 09:53:05;;;;;;;3.05;1.48;;;13.60;79.20;;;;;;4919231;29;20445;-76
2023/11/15 09:55:33;;;;;;;1.63;1.30;;;13.50;79.10;;;;;;4904891;29;20097;-76
2023/11/15 09:57:59;;;;;;;3.05;1.45;;;13.60;79.20;;;;;;4919865;29;20127;-76
2023/11/15 10:00:29;;;;;;;3.03;1.52;;;13.60;79.10;;;;;;4903337;29;20067;-76
2023/11/15 10:02:56;;;;;;;2.20;1.45;;;13.60;79.20;;;;;;4918857;29;20032;-76
2023/11/15 10:05:26;;;;;;;2.08;1.48;;;13.60;79.10;;;;;;4927205;29;20051;-76
2023/11/15 10:08:15;;;;;;;2.67;1.38;;;13.60;79.10;;;;;;4922394;29;20134;-76
2023/11/15 10:10:44;;;;;;;2.95;1.55;;;13.60;79.20;;;;;;4938903;29;20405;-77
2023/11/15 10:13:16;;;;;;;3.03;1.40;;;13.60;79.00;;;;;;4922589;29;20118;-77
2023/11/15 10:15:46;;;;;;;3.85;1.70;;;13.60;79.10;;;;;;4922141;29;20024;-77
2023/11/15 10:18:18;;;;;;;3.45;1.40;;;13.60;79.10;;;;;;4891181;29;20507;-78
2023/11/15 10:20:44;;;;;;;3.33;1.50;;;13.60;79.10;;;;;;4921591;29;20028;-78
2023/11/15 10:23:10;;;;;;;3.88;1.75;;;13.70;79.20;;;;;;4906061;29;20039;-76
2023/11/15 10:25:58;;;;;;;3.08;1.60;;;13.70;79.20;;;;;;4920894;29;20120;-79
2023/11/15 10:28:32;;;;;;;2.28;1.40;;;13.70;79.30;;;;;;4907898;29;20388;-76
2023/11/15 10:31:18;;;;;;;3.90;1.83;;;13.70;79.30;;;;;;4921673;29;20031;-77
2023/11/15 10:33:50;;;;;;;2.90;1.65;;;13.70;79.30;;;;;;4921690;29;20031;-76
2023/11/15 10:36:21;;;;;;;2.88;1.60;;;13.70;79.30;;;;;;4921614;29;20043;-76
2023/11/15 10:38:55;;;;;;;3.20;1.55;;;13.70;79.30;;;;;;4906198;29;20036;-76
2023/11/15 10:41:25;;;;;;;2.25;1.42;;;13.70;79.30;;;;;;4906472;29;20042;-77
2023/11/15 10:43:54;;;;;;;3.53;1.60;;;13.70;79.30;;;;;;4937878;29;20042;-77
2023/11/15 10:46:30;;;;;;;3.38;1.48;;;13.70;79.30;;;;;;4938060;29;20039;-77
2023/11/15 10:48:58;;;;;;;1.55;1.10;;;13.70;79.30;;;;;;4921215;29;20040;-76
2023/11/15 10:51:35;;;;;;;3.70;1.50;;;13.80;79.40;;;;;;4921213;29;20055;-76
2023/11/15 10:54:02;;;;;;;1.33;1.20;;;13.80;79.40;;;;;;4921274;29;20093;-76
2023/11/15 10:56:31;;;;;;;2.78;1.50;;;13.70;79.30;;;;;;4937705;29;20066;-76
2023/11/15 10:58:59;;;;;;;4.13;1.45;;;13.80;79.40;;;;;;4905075;29;20160;-77
2023/11/15 11:01:31;;;;;;;1.55;1.25;;;13.80;79.30;;;;;;4905424;29;20035;-76
2023/11/15 11:03:58;;;;;;;3.13;1.38;;;13.80;79.30;;;;;;4921979;29;20044;-77
2023/11/15 11:06:34;;;;;;;2.58;1.52;;;13.80;79.30;;;;;;4938425;29;20060;-76
2023/11/15 11:09:10;;;;;;;2.90;1.30;;;13.80;79.30;;;;;;4921517;29;20387;-76
2023/11/15 11:11:59;;;;;;;2.30;1.20;;;13.90;79.30;;;;;;4937997;29;20042;-76
2023/11/15 11:14:27;;;;;;;4.20;1.80;;;13.90;79.40;;;;;;4921138;29;20047;-76
2023/11/15 11:16:56;;;;;;;1.98;1.30;;;13.90;79.30;;;;;;4937994;29;20059;-76
2023/11/15 11:19:24;;;;;;;4.03;1.25;;;13.90;79.30;;;;;;4937771;29;20080;-76
2023/11/15 11:24:25;;;;;;;1.80;1.30;;;13.90;79.40;;;;;;4921415;29;20062;-76
2023/11/15 11:26:52;;;;;;;2.88;1.60;;;13.90;79.20;;;;;;4921063;29;20449;-77
2023/11/15 11:29:18;;;;;;;2.42;1.40;;;14.00;79.20;;;;;;4905088;29;20380;-76
2023/11/15 11:32:16;;;;;;;2.40;1.20;;;14.00;79.20;;;;;;4920544;29;20032;-77
2023/11/15 11:35:05;;;;;;;1.50;1.05;;;14.00;79.20;;;;;;4920695;29;20369;-77
2023/11/15 11:37:47;;;;;;;2.67;1.25;;;14.10;79.20;;;;;;4903750;29;20463;-77
2023/11/15 11:40:14;;;;;;;2.10;1.20;;;14.10;79.10;;;;;;4920307;29;20039;-76
2023/11/15 11:42:43;;;;;;;1.40;1.20;;;14.10;79.10;;;;;;4921015;29;20028;-77
2023/11/15 11:45:10;;;;;;;1.85;1.20;;;14.10;79.10;;;;;;4920389;29;20066;-77
2023/11/15 11:47:39;;;;;;;2.05;1.30;;;14.10;79.10;;;;;;4920490;29;20032;-77
2023/11/15 11:50:09;;;;;;;3.17;1.65;;;14.10;79.10;;;;;;4919930;29;20032;-76
2023/11/15 11:52:35;;;;;;;1.88;1.30;;;14.10;79.10;;;;;;4904272;29;20063;-77
2023/11/15 11:55:03;;;;;;;2.95;1.40;;;14.10;79.10;;;;;;4904723;29;20115;-77
2023/11/15 11:57:29;;;;;;;1.73;1.20;;;14.20;79.20;;;;;;4888535;29;20066;-77
2023/11/15 12:00:13;;;;;;;2.28;1.30;;;14.20;79.80;;;;;;4904248;29;20390;-76
2023/11/15 12:02:43;;;;;;;2.60;1.25;;;14.20;79.20;;;;;;4920875;29;20070;-76
2023/11/15 12:05:10;;;;;;;2.90;1.48;;;14.20;79.00;;;;;;4920229;29;20122;-77
2023/11/15 12:07:43;;;;;;;2.85;1.67;;;14.30;79.10;;;;;;4936758;29;20046;-77
2023/11/15 12:10:13;;;;;;;3.20;1.67;;;14.30;79.10;;;;;;4919821;29;20116;-77
2023/11/15 12:13:00;;;;;;;3.17;1.30;;;14.30;79.00;;;;;;4919714;29;20392;-77
2023/11/15 12:15:27;;;;;;;2.83;1.50;;;14.30;79.00;;;;;;4904152;29;20095;-76
2023/11/15 12:17:54;;;;;;;2.03;1.27;;;14.30;78.90;;;;;;4904022;29;20062;-76
2023/11/15 12:20:41;;;;;;;1.60;1.20;;;14.30;78.90;;;;;;4919826;29;20027;-76
2023/11/15 12:23:12;;;;;;;2.65;1.40;;;14.30;79.00;;;;;;4936365;29;20083;-76
2023/11/15 12:25:49;;;;;;;2.30;1.10;;;14.40;79.00;;;;;;4936217;29;20039;-76
2023/11/15 12:28:16;;;;;;;2.72;1.20;;;14.40;79.00;;;;;;4919715;29;20485;-76
2023/11/15 12:30:43;;;;;;;4.03;1.65;;;14.40;78.90;;;;;;4919751;29;20425;-77
2023/11/15 12:33:13;;;;;;;2.00;1.10;;;14.40;78.90;;;;;;4937233;29;20127;-77
2023/11/15 12:35:40;;;;;;;2.25;1.20;;;14.40;79.60;;;;;;4919886;29;20043;-77
2023/11/15 12:38:16;;;;;;;2.60;1.25;;;14.40;78.90;;;;;;4903771;29;20057;-77
2023/11/15 12:40:44;;;;;;;2.63;1.42;;;14.40;78.90;;;;;;4903688;29;20035;-76
2023/11/15 12:43:21;;;;;;;1.95;1.17;;;14.40;78.90;;;;;;4919465;29;20032;-76
2023/11/15 12:45:53;;;;;;;1.75;1.10;;;14.40;79.00;;;;;;4919098;29;20083;-76
2023/11/15 12:48:19;;;;;;;2.90;1.50;;;14.40;78.90;;;;;;4904033;29;20114;-76
2023/11/15 12:50:47;;;;;;;1.63;1.08;;;14.40;78.90;;;;;;4919076;29;20032;-77
2023/11/15 12:53:17;;;;;;;2.15;1.15;;;14.40;78.90;;;;;;4919518;29;20038;-77